sensor_id;sensor_type;location;lat;lon;timestamp;temperature;humidity
16271;DHT22;8243;49.048;8.396;2022-12-07T00:01:23;4.90;99.90
16271;DHT22;8243;49.048;8.396;2022-12-07T00:03:51;5.00;99.90
16271;DHT22;8243;49.048;8.396;2022-12-07T00:06:17;5.20;99.90
16271;DHT22;8243;49.048;8.396;2022-12-07T00:08:43;4.90;99.90
16271;DHT22;8243;49.048;8.396;2022-12-07T00:11:20;5.00;99.90
16271;DHT22;8243;49.048;8.396;2022-12-07T00:13:46;5.10;99.90
16271;DHT22;8243;49.048;8.396;2022-12-07T00:16:17;4.90;99.90
16271;DHT22;8243;49.048;8.396;2022-12-07T00:18:44;5.00;99.90
16271;DHT22;8243;49.048;8.396;2022-12-07T00:21:16;4.80;99.90
16271;DHT22;8243;49.048;8.396;2022-12-07T00:23:43;5.00;99.90
16271;DHT22;8243;49.048;8.396;2022-12-07T00:26:14;4.80;99.90
16271;DHT22;8243;49.048;8.396;2022-12-07T00:28:40;4.80;99.90
16271;DHT22;8243;49.048;8.396;2022-12-07T00:31:09;4.70;99.90
16271;DHT22;8243;49.048;8.396;2022-12-07T00:33:35;4.90;99.90
16271;DHT22;8243;49.048;8.396;2022-12-07T00:36:02;4.90;99.90
16271;DHT22;8243;49.048;8.396;2022-12-07T00:38:31;4.80;99.90
16271;DHT22;8243;49.048;8.396;2022-12-07T00:40:58;4.90;99.90
16271;DHT22;8243;49.048;8.396;2022-12-07T00:43:24;4.90;99.90
16271;DHT22;8243;49.048;8.396;2022-12-07T00:45:50;4.80;99.90
16271;DHT22;8243;49.048;8.396;2022-12-07T00:48:16;4.80;99.90
16271;DHT22;8243;49.048;8.396;2022-12-07T00:50:41;4.80;99.90
16271;DHT22;8243;49.048;8.396;2022-12-07T00:53:07;4.60;99.90
16271;DHT22;8243;49.048;8.396;2022-12-07T00:55:34;4.70;99.90
16271;DHT22;8243;49.048;8.396;2022-12-07T00:57:59;4.70;99.90
16271;DHT22;8243;49.048;8.396;2022-12-07T01:00:25;4.70;99.90
16271;DHT22;8243;49.048;8.396;2022-12-07T01:02:50;4.60;99.90
16271;DHT22;8243;49.048;8.396;2022-12-07T01:05:16;4.60;99.90
16271;DHT22;8243;49.048;8.396;2022-12-07T01:07:42;4.80;99.90
16271;DHT22;8243;49.048;8.396;2022-12-07T01:10:07;4.60;99.90
16271;DHT22;8243;49.048;8.396;2022-12-07T01:12:33;4.60;99.90
16271;DHT22;8243;49.048;8.396;2022-12-07T01:14:58;4.40;99.90
16271;DHT22;8243;49.048;8.396;2022-12-07T01:17:24;4.40;99.90
16271;DHT22;8243;49.048;8.396;2022-12-07T01:19:50;4.50;99.90
16271;DHT22;8243;49.048;8.396;2022-12-07T01:22:15;4.50;99.90
16271;DHT22;8243;49.048;8.396;2022-12-07T01:24:41;4.40;99.90
16271;DHT22;8243;49.048;8.396;2022-12-07T01:27:06;4.40;99.90
16271;DHT22;8243;49.048;8.396;2022-12-07T01:29:32;4.40;99.90
16271;DHT22;8243;49.048;8.396;2022-12-07T01:31:57;4.50;99.90
16271;DHT22;8243;49.048;8.396;2022-12-07T01:34:23;4.20;99.90
16271;DHT22;8243;49.048;8.396;2022-12-07T01:36:48;4.20;99.90
16271;DHT22;8243;49.048;8.396;2022-12-07T01:39:14;4.30;99.90
16271;DHT22;8243;49.048;8.396;2022-12-07T01:41:40;4.20;99.90
16271;DHT22;8243;49.048;8.396;2022-12-07T01:44:10;4.10;99.90
16271;DHT22;8243;49.048;8.396;2022-12-07T01:46:36;4.30;99.90
16271;DHT22;8243;49.048;8.396;2022-12-07T01:49:03;4.00;99.90
16271;DHT22;8243;49.048;8.396;2022-12-07T01:51:30;4.00;99.90
16271;DHT22;8243;49.048;8.396;2022-12-07T01:53:56;4.10;99.90
16271;DHT22;8243;49.048;8.396;2022-12-07T01:56:24;4.00;99.90
16271;DHT22;8243;49.048;8.396;2022-12-07T01:58:51;4.10;99.90
16271;DHT22;8243;49.048;8.396;2022-12-07T02:01:17;4.00;99.90
16271;DHT22;8243;49.048;8.396;2022-12-07T02:03:44;4.10;99.90
16271;DHT22;8243;49.048;8.396;2022-12-07T02:06:13;4.00;99.90
16271;DHT22;8243;49.048;8.396;2022-12-07T02:08:42;4.00;99.90
16271;DHT22;8243;49.048;8.396;2022-12-07T02:11:09;4.10;99.90
16271;DHT22;8243;49.048;8.396;2022-12-07T02:13:37;4.20;99.90
16271;DHT22;8243;49.048;8.396;2022-12-07T02:18:50;4.40;99.90
16271;DHT22;8243;49.048;8.396;2022-12-07T02:32:28;4.30;99.90
16271;DHT22;8243;49.048;8.396;2022-12-07T02:40:33;4.40;99.90
16271;DHT22;8243;49.048;8.396;2022-12-07T02:43:43;4.40;99.90
16271;DHT22;8243;49.048;8.396;2022-12-07T02:46:16;4.10;99.90
16271;DHT22;8243;49.048;8.396;2022-12-07T02:48:43;4.40;99.90
16271;DHT22;8243;49.048;8.396;2022-12-07T02:51:09;4.10;99.90
16271;DHT22;8243;49.048;8.396;2022-12-07T02:53:43;4.20;99.90
16271;DHT22;8243;49.048;8.396;2022-12-07T02:56:39;4.30;99.90
16271;DHT22;8243;49.048;8.396;2022-12-07T03:01:55;4.30;99.90
16271;DHT22;8243;49.048;8.396;2022-12-07T03:04:45;4.40;99.90
16271;DHT22;8243;49.048;8.396;2022-12-07T03:09:58;4.30;99.90
16271;DHT22;8243;49.048;8.396;2022-12-07T03:12:32;4.10;99.90
16271;DHT22;8243;49.048;8.396;2022-12-07T03:15:07;4.30;99.90
16271;DHT22;8243;49.048;8.396;2022-12-07T03:17:37;4.10;99.90
16271;DHT22;8243;49.048;8.396;2022-12-07T03:20:08;4.20;99.90
16271;DHT22;8243;49.048;8.396;2022-12-07T03:22:35;4.40;99.90
16271;DHT22;8243;49.048;8.396;2022-12-07T03:25:07;4.10;99.90
16271;DHT22;8243;49.048;8.396;2022-12-07T03:27:55;4.30;99.90
16271;DHT22;8243;49.048;8.396;2022-12-07T03:30:27;4.10;99.90
16271;DHT22;8243;49.048;8.396;2022-12-07T03:32:56;4.10;99.90
16271;DHT22;8243;49.048;8.396;2022-12-07T03:35:30;4.10;99.90
16271;DHT22;8243;49.048;8.396;2022-12-07T03:40:39;4.00;99.90
16271;DHT22;8243;49.048;8.396;2022-12-07T03:43:06;3.80;99.90
16271;DHT22;8243;49.048;8.396;2022-12-07T03:45:38;3.50;99.90
16271;DHT22;8243;49.048;8.396;2022-12-07T03:48:37;3.60;99.90
16271;DHT22;8243;49.048;8.396;2022-12-07T03:51:54;3.60;99.90
16271;DHT22;8243;49.048;8.396;2022-12-07T03:54:13;3.70;99.90
16271;DHT22;8243;49.048;8.396;2022-12-07T03:56:42;3.70;99.90
16271;DHT22;8243;49.048;8.396;2022-12-07T03:59:09;3.60;99.90
16271;DHT22;8243;49.048;8.396;2022-12-07T04:01:36;3.80;99.90
16271;DHT22;8243;49.048;8.396;2022-12-07T04:04:01;3.70;99.90
16271;DHT22;8243;49.048;8.396;2022-12-07T04:06:27;3.80;99.90
16271;DHT22;8243;49.048;8.396;2022-12-07T04:08:52;3.70;99.90
16271;DHT22;8243;49.048;8.396;2022-12-07T04:11:18;3.70;99.90
16271;DHT22;8243;49.048;8.396;2022-12-07T04:13:43;3.70;99.90
16271;DHT22;8243;49.048;8.396;2022-12-07T04:16:28;3.70;99.90
16271;DHT22;8243;49.048;8.396;2022-12-07T04:18:53;3.70;99.90
16271;DHT22;8243;49.048;8.396;2022-12-07T04:21:19;3.70;99.90
16271;DHT22;8243;49.048;8.396;2022-12-07T04:23:44;3.80;99.90
16271;DHT22;8243;49.048;8.396;2022-12-07T04:26:10;3.70;99.90
16271;DHT22;8243;49.048;8.396;2022-12-07T04:28:35;3.90;99.90
16271;DHT22;8243;49.048;8.396;2022-12-07T04:31:01;3.80;99.90
16271;DHT22;8243;49.048;8.396;2022-12-07T04:33:26;3.80;99.90
16271;DHT22;8243;49.048;8.396;2022-12-07T04:35:52;3.80;99.90
16271;DHT22;8243;49.048;8.396;2022-12-07T04:38:17;3.90;99.90
16271;DHT22;8243;49.048;8.396;2022-12-07T04:40:43;3.80;99.90
16271;DHT22;8243;49.048;8.396;2022-12-07T04:43:08;3.70;99.90
16271;DHT22;8243;49.048;8.396;2022-12-07T04:45:34;3.80;99.90
16271;DHT22;8243;49.048;8.396;2022-12-07T04:47:59;4.00;99.90
16271;DHT22;8243;49.048;8.396;2022-12-07T04:50:25;4.00;99.90
16271;DHT22;8243;49.048;8.396;2022-12-07T04:52:50;3.80;99.90
16271;DHT22;8243;49.048;8.396;2022-12-07T04:55:16;3.80;99.90
16271;DHT22;8243;49.048;8.396;2022-12-07T04:57:41;4.10;99.90
16271;DHT22;8243;49.048;8.396;2022-12-07T05:00:07;3.70;99.90
16271;DHT22;8243;49.048;8.396;2022-12-07T05:02:33;4.00;99.90
16271;DHT22;8243;49.048;8.396;2022-12-07T05:04:59;3.90;99.90
16271;DHT22;8243;49.048;8.396;2022-12-07T05:07:24;3.80;99.90
16271;DHT22;8243;49.048;8.396;2022-12-07T05:09:50;3.90;99.90
16271;DHT22;8243;49.048;8.396;2022-12-07T05:12:15;4.00;99.90
16271;DHT22;8243;49.048;8.396;2022-12-07T05:14:41;4.00;99.90
16271;DHT22;8243;49.048;8.396;2022-12-07T05:17:06;4.00;99.90
16271;DHT22;8243;49.048;8.396;2022-12-07T05:19:32;3.90;99.90
16271;DHT22;8243;49.048;8.396;2022-12-07T05:21:57;3.90;99.90
16271;DHT22;8243;49.048;8.396;2022-12-07T05:24:23;3.90;99.90
16271;DHT22;8243;49.048;8.396;2022-12-07T05:26:48;3.90;99.90
16271;DHT22;8243;49.048;8.396;2022-12-07T05:29:16;3.90;99.90
16271;DHT22;8243;49.048;8.396;2022-12-07T05:31:53;3.90;99.90
16271;DHT22;8243;49.048;8.396;2022-12-07T05:34:19;3.90;99.90
16271;DHT22;8243;49.048;8.396;2022-12-07T05:36:45;3.80;99.90
16271;DHT22;8243;49.048;8.396;2022-12-07T05:39:10;3.80;99.90
16271;DHT22;8243;49.048;8.396;2022-12-07T05:41:36;4.00;99.90
16271;DHT22;8243;49.048;8.396;2022-12-07T05:44:20;4.00;99.90
16271;DHT22;8243;49.048;8.396;2022-12-07T05:46:46;3.90;99.90
16271;DHT22;8243;49.048;8.396;2022-12-07T05:49:12;3.90;99.90
16271;DHT22;8243;49.048;8.396;2022-12-07T05:51:37;4.00;99.90
16271;DHT22;8243;49.048;8.396;2022-12-07T05:54:03;4.00;99.90
16271;DHT22;8243;49.048;8.396;2022-12-07T05:56:29;3.90;99.90
16271;DHT22;8243;49.048;8.396;2022-12-07T05:58:54;3.90;99.90
16271;DHT22;8243;49.048;8.396;2022-12-07T06:01:39;4.10;99.90
16271;DHT22;8243;49.048;8.396;2022-12-07T06:04:04;4.00;99.90
16271;DHT22;8243;49.048;8.396;2022-12-07T06:06:30;3.90;99.90
16271;DHT22;8243;49.048;8.396;2022-12-07T06:08:55;3.90;99.90
16271;DHT22;8243;49.048;8.396;2022-12-07T06:11:21;4.00;99.90
16271;DHT22;8243;49.048;8.396;2022-12-07T06:14:05;4.00;99.90
16271;DHT22;8243;49.048;8.396;2022-12-07T06:16:30;3.80;99.90
16271;DHT22;8243;49.048;8.396;2022-12-07T06:18:56;3.80;99.90
16271;DHT22;8243;49.048;8.396;2022-12-07T06:21:22;3.90;99.90
16271;DHT22;8243;49.048;8.396;2022-12-07T06:23:47;3.90;99.90
16271;DHT22;8243;49.048;8.396;2022-12-07T06:26:14;3.90;99.90
16271;DHT22;8243;49.048;8.396;2022-12-07T06:28:39;4.00;99.90
16271;DHT22;8243;49.048;8.396;2022-12-07T06:31:06;4.00;99.90
16271;DHT22;8243;49.048;8.396;2022-12-07T06:33:31;4.00;99.90
16271;DHT22;8243;49.048;8.396;2022-12-07T06:35:57;3.80;99.90
16271;DHT22;8243;49.048;8.396;2022-12-07T06:38:22;4.10;99.90
16271;DHT22;8243;49.048;8.396;2022-12-07T06:40:48;4.00;99.90
16271;DHT22;8243;49.048;8.396;2022-12-07T06:43:14;4.10;99.90
16271;DHT22;8243;49.048;8.396;2022-12-07T06:45:40;4.00;99.90
16271;DHT22;8243;49.048;8.396;2022-12-07T06:48:06;3.90;99.90
16271;DHT22;8243;49.048;8.396;2022-12-07T06:50:31;3.90;99.90
16271;DHT22;8243;49.048;8.396;2022-12-07T06:52:57;4.00;99.90
16271;DHT22;8243;49.048;8.396;2022-12-07T06:55:22;3.90;99.90
16271;DHT22;8243;49.048;8.396;2022-12-07T06:57:48;3.90;99.90
16271;DHT22;8243;49.048;8.396;2022-12-07T07:00:14;4.00;99.90
16271;DHT22;8243;49.048;8.396;2022-12-07T07:02:39;4.00;99.90
16271;DHT22;8243;49.048;8.396;2022-12-07T07:05:05;3.80;99.90
16271;DHT22;8243;49.048;8.396;2022-12-07T07:07:31;4.00;99.90
16271;DHT22;8243;49.048;8.396;2022-12-07T07:09:56;4.00;99.90
16271;DHT22;8243;49.048;8.396;2022-12-07T07:12:22;4.00;99.90
16271;DHT22;8243;49.048;8.396;2022-12-07T07:14:47;4.10;99.90
16271;DHT22;8243;49.048;8.396;2022-12-07T07:17:13;4.10;99.90
16271;DHT22;8243;49.048;8.396;2022-12-07T07:19:38;4.10;99.90
16271;DHT22;8243;49.048;8.396;2022-12-07T07:22:04;4.10;99.90
16271;DHT22;8243;49.048;8.396;2022-12-07T07:24:30;4.00;99.90
16271;DHT22;8243;49.048;8.396;2022-12-07T07:26:55;4.20;99.90
16271;DHT22;8243;49.048;8.396;2022-12-07T07:29:21;4.30;99.90
16271;DHT22;8243;49.048;8.396;2022-12-07T07:31:47;4.30;99.90
16271;DHT22;8243;49.048;8.396;2022-12-07T07:34:12;4.10;99.90
16271;DHT22;8243;49.048;8.396;2022-12-07T07:36:38;4.10;99.90
16271;DHT22;8243;49.048;8.396;2022-12-07T07:39:03;4.40;99.90
16271;DHT22;8243;49.048;8.396;2022-12-07T07:41:30;4.30;99.90
16271;DHT22;8243;49.048;8.396;2022-12-07T07:43:56;4.20;99.90
16271;DHT22;8243;49.048;8.396;2022-12-07T07:46:21;4.40;99.90
16271;DHT22;8243;49.048;8.396;2022-12-07T07:48:47;4.20;99.90
16271;DHT22;8243;49.048;8.396;2022-12-07T07:51:12;4.30;99.90
16271;DHT22;8243;49.048;8.396;2022-12-07T07:53:38;4.20;99.90
16271;DHT22;8243;49.048;8.396;2022-12-07T07:56:04;4.30;99.90
16271;DHT22;8243;49.048;8.396;2022-12-07T07:58:29;4.40;99.90
16271;DHT22;8243;49.048;8.396;2022-12-07T08:00:55;4.30;99.90
16271;DHT22;8243;49.048;8.396;2022-12-07T08:03:20;4.40;99.90
16271;DHT22;8243;49.048;8.396;2022-12-07T08:05:46;4.40;99.90
16271;DHT22;8243;49.048;8.396;2022-12-07T08:08:11;4.40;99.90
16271;DHT22;8243;49.048;8.396;2022-12-07T08:10:37;4.50;99.90
16271;DHT22;8243;49.048;8.396;2022-12-07T08:13:03;4.50;99.90
16271;DHT22;8243;49.048;8.396;2022-12-07T08:15:43;4.50;99.90
16271;DHT22;8243;49.048;8.396;2022-12-07T08:18:09;4.60;99.90
16271;DHT22;8243;49.048;8.396;2022-12-07T08:20:35;4.40;99.90
16271;DHT22;8243;49.048;8.396;2022-12-07T08:23:01;4.40;99.90
16271;DHT22;8243;49.048;8.396;2022-12-07T08:25:27;4.50;99.90
16271;DHT22;8243;49.048;8.396;2022-12-07T08:27:53;4.70;99.90
16271;DHT22;8243;49.048;8.396;2022-12-07T08:30:19;4.60;99.90
16271;DHT22;8243;49.048;8.396;2022-12-07T08:32:45;4.50;99.90
16271;DHT22;8243;49.048;8.396;2022-12-07T08:35:12;4.40;99.90
16271;DHT22;8243;49.048;8.396;2022-12-07T08:37:38;4.50;99.90
16271;DHT22;8243;49.048;8.396;2022-12-07T08:40:05;4.50;99.90
16271;DHT22;8243;49.048;8.396;2022-12-07T08:42:30;4.70;99.90
16271;DHT22;8243;49.048;8.396;2022-12-07T08:45:09;4.60;99.90
16271;DHT22;8243;49.048;8.396;2022-12-07T08:47:38;4.40;99.90
16271;DHT22;8243;49.048;8.396;2022-12-07T08:50:06;4.50;99.90
16271;DHT22;8243;49.048;8.396;2022-12-07T08:52:32;4.40;99.90
16271;DHT22;8243;49.048;8.396;2022-12-07T08:54:59;4.70;99.90
16271;DHT22;8243;49.048;8.396;2022-12-07T08:57:27;4.60;99.90
16271;DHT22;8243;49.048;8.396;2022-12-07T08:59:53;4.70;99.90
16271;DHT22;8243;49.048;8.396;2022-12-07T09:02:19;4.60;99.90
16271;DHT22;8243;49.048;8.396;2022-12-07T09:04:44;4.80;99.90
16271;DHT22;8243;49.048;8.396;2022-12-07T09:07:10;4.80;99.90
16271;DHT22;8243;49.048;8.396;2022-12-07T09:09:36;4.80;99.90
16271;DHT22;8243;49.048;8.396;2022-12-07T09:12:02;4.70;99.90
16271;DHT22;8243;49.048;8.396;2022-12-07T09:14:27;5.00;99.90
16271;DHT22;8243;49.048;8.396;2022-12-07T09:16:53;5.00;99.90
16271;DHT22;8243;49.048;8.396;2022-12-07T09:19:19;5.00;99.90
16271;DHT22;8243;49.048;8.396;2022-12-07T09:21:44;5.30;99.90
16271;DHT22;8243;49.048;8.396;2022-12-07T09:24:12;5.10;99.90
16271;DHT22;8243;49.048;8.396;2022-12-07T09:26:37;5.30;99.90
16271;DHT22;8243;49.048;8.396;2022-12-07T09:29:04;5.30;99.90
16271;DHT22;8243;49.048;8.396;2022-12-07T09:31:30;5.60;99.90
16271;DHT22;8243;49.048;8.396;2022-12-07T09:34:00;5.50;99.90
16271;DHT22;8243;49.048;8.396;2022-12-07T09:36:27;5.60;99.90
16271;DHT22;8243;49.048;8.396;2022-12-07T09:38:53;5.60;99.90
16271;DHT22;8243;49.048;8.396;2022-12-07T09:41:19;5.70;99.90
16271;DHT22;8243;49.048;8.396;2022-12-07T09:43:46;5.50;99.90
16271;DHT22;8243;49.048;8.396;2022-12-07T09:46:15;5.60;99.90
16271;DHT22;8243;49.048;8.396;2022-12-07T09:48:42;5.80;99.90
16271;DHT22;8243;49.048;8.396;2022-12-07T09:51:18;5.80;99.90
16271;DHT22;8243;49.048;8.396;2022-12-07T09:53:44;5.80;99.90
16271;DHT22;8243;49.048;8.396;2022-12-07T09:56:15;5.80;99.90
16271;DHT22;8243;49.048;8.396;2022-12-07T09:58:41;5.80;99.90
16271;DHT22;8243;49.048;8.396;2022-12-07T10:03:35;5.90;99.90
16271;DHT22;8243;49.048;8.396;2022-12-07T10:06:01;5.70;99.90
16271;DHT22;8243;49.048;8.396;2022-12-07T10:08:27;6.00;99.90
16271;DHT22;8243;49.048;8.396;2022-12-07T10:10:55;6.40;99.90
16271;DHT22;8243;49.048;8.396;2022-12-07T10:13:43;6.50;99.90
16271;DHT22;8243;49.048;8.396;2022-12-07T10:16:40;6.10;99.60
16271;DHT22;8243;49.048;8.396;2022-12-07T10:19:28;6.30;99.10
16271;DHT22;8243;49.048;8.396;2022-12-07T10:22:15;6.40;98.30
16271;DHT22;8243;49.048;8.396;2022-12-07T10:24:43;6.20;96.40
16271;DHT22;8243;49.048;8.396;2022-12-07T10:27:19;5.90;96.60
16271;DHT22;8243;49.048;8.396;2022-12-07T10:29:50;5.80;96.30
16271;DHT22;8243;49.048;8.396;2022-12-07T10:34:42;6.10;95.80
16271;DHT22;8243;49.048;8.396;2022-12-07T10:39:50;5.50;96.30
16271;DHT22;8243;49.048;8.396;2022-12-07T10:42:27;5.90;95.80
16271;DHT22;8243;49.048;8.396;2022-12-07T10:47:51;5.90;95.90
16271;DHT22;8243;49.048;8.396;2022-12-07T10:50:27;5.90;96.30
16271;DHT22;8243;49.048;8.396;2022-12-07T10:56:09;5.90;96.90
16271;DHT22;8243;49.048;8.396;2022-12-07T10:58:45;5.80;96.50
16271;DHT22;8243;49.048;8.396;2022-12-07T11:01:52;5.70;96.40
16271;DHT22;8243;49.048;8.396;2022-12-07T11:07:35;6.00;96.00
16271;DHT22;8243;49.048;8.396;2022-12-07T11:10:18;6.00;96.10
16271;DHT22;8243;49.048;8.396;2022-12-07T11:12:59;5.90;95.60
16271;DHT22;8243;49.048;8.396;2022-12-07T11:15:50;5.90;95.60
16271;DHT22;8243;49.048;8.396;2022-12-07T11:21:20;6.00;94.80
16271;DHT22;8243;49.048;8.396;2022-12-07T11:23:59;6.20;94.00
16271;DHT22;8243;49.048;8.396;2022-12-07T11:35:18;6.20;93.80
16271;DHT22;8243;49.048;8.396;2022-12-07T11:37:46;6.30;93.80
16271;DHT22;8243;49.048;8.396;2022-12-07T11:40:20;6.40;93.70
16271;DHT22;8243;49.048;8.396;2022-12-07T11:45:41;6.40;92.80
16271;DHT22;8243;49.048;8.396;2022-12-07T11:48:29;6.60;93.00
16271;DHT22;8243;49.048;8.396;2022-12-07T11:50:58;6.60;92.70
16271;DHT22;8243;49.048;8.396;2022-12-07T11:53:38;6.40;92.50
16271;DHT22;8243;49.048;8.396;2022-12-07T12:04:22;6.40;93.50
16271;DHT22;8243;49.048;8.396;2022-12-07T12:06:49;6.30;93.60
16271;DHT22;8243;49.048;8.396;2022-12-07T12:09:50;6.30;93.50
16271;DHT22;8243;49.048;8.396;2022-12-07T12:20:57;6.50;94.30
16271;DHT22;8243;49.048;8.396;2022-12-07T12:23:50;6.50;93.30
16271;DHT22;8243;49.048;8.396;2022-12-07T12:26:22;6.50;93.50
16271;DHT22;8243;49.048;8.396;2022-12-07T12:28:52;6.50;92.90
16271;DHT22;8243;49.048;8.396;2022-12-07T12:33:50;6.60;93.20
16271;DHT22;8243;49.048;8.396;2022-12-07T12:46:57;6.70;93.00
16271;DHT22;8243;49.048;8.396;2022-12-07T12:54:23;6.70;92.90
16271;DHT22;8243;49.048;8.396;2022-12-07T12:59:35;6.50;93.20
16271;DHT22;8243;49.048;8.396;2022-12-07T13:02:20;6.50;93.50
16271;DHT22;8243;49.048;8.396;2022-12-07T13:05:23;6.40;93.50
16271;DHT22;8243;49.048;8.396;2022-12-07T13:07:53;6.50;93.80
16271;DHT22;8243;49.048;8.396;2022-12-07T13:18:38;6.10;96.20
16271;DHT22;8243;49.048;8.396;2022-12-07T13:23:54;6.00;97.80
16271;DHT22;8243;49.048;8.396;2022-12-07T13:37:45;6.00;98.00
16271;DHT22;8243;49.048;8.396;2022-12-07T13:39:58;6.10;98.60
16271;DHT22;8243;49.048;8.396;2022-12-07T13:42:32;6.10;98.10
16271;DHT22;8243;49.048;8.396;2022-12-07T13:44:59;6.20;97.90
16271;DHT22;8243;49.048;8.396;2022-12-07T13:47:58;5.90;98.20
16271;DHT22;8243;49.048;8.396;2022-12-07T13:50:29;6.30;98.20
16271;DHT22;8243;49.048;8.396;2022-12-07T13:52:57;6.30;97.50
16271;DHT22;8243;49.048;8.396;2022-12-07T13:55:23;6.20;97.40
16271;DHT22;8243;49.048;8.396;2022-12-07T13:57:51;6.30;97.90
16271;DHT22;8243;49.048;8.396;2022-12-07T14:00:21;6.20;97.90
16271;DHT22;8243;49.048;8.396;2022-12-07T14:03:00;6.20;97.90
16271;DHT22;8243;49.048;8.396;2022-12-07T14:05:32;6.20;97.40
16271;DHT22;8243;49.048;8.396;2022-12-07T14:10:33;6.00;97.20
16271;DHT22;8243;49.048;8.396;2022-12-07T14:13:01;6.10;97.80
16271;DHT22;8243;49.048;8.396;2022-12-07T14:15:32;6.20;97.70
16271;DHT22;8243;49.048;8.396;2022-12-07T14:17:59;6.10;97.80
16271;DHT22;8243;49.048;8.396;2022-12-07T14:22:56;5.80;97.90
16271;DHT22;8243;49.048;8.396;2022-12-07T14:25:23;5.70;98.30
16271;DHT22;8243;49.048;8.396;2022-12-07T14:30:19;6.00;98.30
16271;DHT22;8243;49.048;8.396;2022-12-07T14:32:45;5.90;98.60
16271;DHT22;8243;49.048;8.396;2022-12-07T14:35:16;5.80;98.90
16271;DHT22;8243;49.048;8.396;2022-12-07T14:37:45;5.70;99.30
16271;DHT22;8243;49.048;8.396;2022-12-07T14:40:20;5.60;99.80
16271;DHT22;8243;49.048;8.396;2022-12-07T14:42:48;5.70;99.90
16271;DHT22;8243;49.048;8.396;2022-12-07T14:45:17;5.60;99.90
16271;DHT22;8243;49.048;8.396;2022-12-07T14:47:44;5.50;99.90
16271;DHT22;8243;49.048;8.396;2022-12-07T14:50:15;5.80;99.90
16271;DHT22;8243;49.048;8.396;2022-12-07T14:52:43;5.50;99.90
16271;DHT22;8243;49.048;8.396;2022-12-07T14:55:25;5.60;99.90
16271;DHT22;8243;49.048;8.396;2022-12-07T14:57:51;5.40;99.90
16271;DHT22;8243;49.048;8.396;2022-12-07T15:00:18;5.40;99.90
16271;DHT22;8243;49.048;8.396;2022-12-07T15:02:46;5.70;99.90
16271;DHT22;8243;49.048;8.396;2022-12-07T15:05:12;5.60;99.90
16271;DHT22;8243;49.048;8.396;2022-12-07T15:07:38;5.60;99.90
16271;DHT22;8243;49.048;8.396;2022-12-07T15:10:04;5.50;99.90
16271;DHT22;8243;49.048;8.396;2022-12-07T15:12:31;5.60;99.90
16271;DHT22;8243;49.048;8.396;2022-12-07T15:14:56;5.40;99.90
16271;DHT22;8243;49.048;8.396;2022-12-07T15:17:22;5.70;99.90
16271;DHT22;8243;49.048;8.396;2022-12-07T15:19:47;5.50;99.90
16271;DHT22;8243;49.048;8.396;2022-12-07T15:22:13;5.30;99.90
16271;DHT22;8243;49.048;8.396;2022-12-07T15:24:38;5.60;99.90
16271;DHT22;8243;49.048;8.396;2022-12-07T15:27:04;5.50;99.90
16271;DHT22;8243;49.048;8.396;2022-12-07T15:29:30;5.30;99.90
16271;DHT22;8243;49.048;8.396;2022-12-07T15:31:55;5.40;99.90
16271;DHT22;8243;49.048;8.396;2022-12-07T15:34:23;5.40;99.90
16271;DHT22;8243;49.048;8.396;2022-12-07T15:36:48;5.10;99.90
16271;DHT22;8243;49.048;8.396;2022-12-07T15:39:14;5.30;99.90
16271;DHT22;8243;49.048;8.396;2022-12-07T15:41:39;5.30;99.90
16271;DHT22;8243;49.048;8.396;2022-12-07T15:44:05;5.00;99.90
16271;DHT22;8243;49.048;8.396;2022-12-07T15:46:49;5.10;99.90
16271;DHT22;8243;49.048;8.396;2022-12-07T15:49:17;5.00;99.90
16271;DHT22;8243;49.048;8.396;2022-12-07T15:51:44;4.70;99.90
16271;DHT22;8243;49.048;8.396;2022-12-07T15:54:24;4.90;99.90
16271;DHT22;8243;49.048;8.396;2022-12-07T15:56:50;4.70;99.90
16271;DHT22;8243;49.048;8.396;2022-12-07T15:59:16;4.70;99.90
16271;DHT22;8243;49.048;8.396;2022-12-07T16:01:42;4.80;99.90
16271;DHT22;8243;49.048;8.396;2022-12-07T16:04:07;4.70;99.90
16271;DHT22;8243;49.048;8.396;2022-12-07T16:06:34;4.60;99.90
16271;DHT22;8243;49.048;8.396;2022-12-07T16:09:01;4.50;99.90
16271;DHT22;8243;49.048;8.396;2022-12-07T16:11:28;4.30;99.90
16271;DHT22;8243;49.048;8.396;2022-12-07T16:13:53;4.40;99.90
16271;DHT22;8243;49.048;8.396;2022-12-07T16:16:19;4.40;99.90
16271;DHT22;8243;49.048;8.396;2022-12-07T16:18:48;4.30;99.90
16271;DHT22;8243;49.048;8.396;2022-12-07T16:21:15;4.40;99.90
16271;DHT22;8243;49.048;8.396;2022-12-07T16:23:40;4.30;99.90
16271;DHT22;8243;49.048;8.396;2022-12-07T16:26:18;4.20;99.90
16271;DHT22;8243;49.048;8.396;2022-12-07T16:28:44;4.10;99.90
16271;DHT22;8243;49.048;8.396;2022-12-07T16:31:15;4.20;99.90
16271;DHT22;8243;49.048;8.396;2022-12-07T16:33:43;4.50;99.90
16271;DHT22;8243;49.048;8.396;2022-12-07T16:36:10;4.20;99.90
16271;DHT22;8243;49.048;8.396;2022-12-07T16:38:36;4.50;99.90
16271;DHT22;8243;49.048;8.396;2022-12-07T16:41:03;4.30;99.90
16271;DHT22;8243;49.048;8.396;2022-12-07T16:43:28;4.40;99.90
16271;DHT22;8243;49.048;8.396;2022-12-07T16:45:54;4.70;99.90
16271;DHT22;8243;49.048;8.396;2022-12-07T16:48:20;4.60;99.90
16271;DHT22;8243;49.048;8.396;2022-12-07T16:50:46;4.60;99.90
16271;DHT22;8243;49.048;8.396;2022-12-07T16:53:13;4.70;99.90
16271;DHT22;8243;49.048;8.396;2022-12-07T16:55:44;4.70;99.90
16271;DHT22;8243;49.048;8.396;2022-12-07T16:58:12;4.70;99.90
16271;DHT22;8243;49.048;8.396;2022-12-07T17:00:38;4.60;99.90
16271;DHT22;8243;49.048;8.396;2022-12-07T17:03:05;4.70;99.90
16271;DHT22;8243;49.048;8.396;2022-12-07T17:05:31;4.70;99.90
16271;DHT22;8243;49.048;8.396;2022-12-07T17:07:57;4.70;99.90
16271;DHT22;8243;49.048;8.396;2022-12-07T17:10:23;4.60;99.90
16271;DHT22;8243;49.048;8.396;2022-12-07T17:12:49;4.70;99.90
16271;DHT22;8243;49.048;8.396;2022-12-07T17:15:15;4.60;99.90
16271;DHT22;8243;49.048;8.396;2022-12-07T17:17:53;4.70;99.90
16271;DHT22;8243;49.048;8.396;2022-12-07T17:20:21;4.50;99.90
16271;DHT22;8243;49.048;8.396;2022-12-07T17:22:47;4.80;99.90
16271;DHT22;8243;49.048;8.396;2022-12-07T17:25:13;4.50;99.90
16271;DHT22;8243;49.048;8.396;2022-12-07T17:27:39;4.50;99.90
16271;DHT22;8243;49.048;8.396;2022-12-07T17:30:05;4.50;99.90
16271;DHT22;8243;49.048;8.396;2022-12-07T17:32:31;4.60;99.90
16271;DHT22;8243;49.048;8.396;2022-12-07T17:34:57;4.70;99.90
16271;DHT22;8243;49.048;8.396;2022-12-07T17:37:22;4.60;99.90
16271;DHT22;8243;49.048;8.396;2022-12-07T17:39:48;4.70;99.90
16271;DHT22;8243;49.048;8.396;2022-12-07T17:42:14;4.70;99.90
16271;DHT22;8243;49.048;8.396;2022-12-07T17:44:58;4.60;99.90
16271;DHT22;8243;49.048;8.396;2022-12-07T17:47:24;4.70;99.90
16271;DHT22;8243;49.048;8.396;2022-12-07T17:49:50;4.50;99.90
16271;DHT22;8243;49.048;8.396;2022-12-07T17:52:15;4.50;99.90
16271;DHT22;8243;49.048;8.396;2022-12-07T17:54:59;4.40;99.90
16271;DHT22;8243;49.048;8.396;2022-12-07T17:57:25;4.40;99.90
16271;DHT22;8243;49.048;8.396;2022-12-07T17:59:51;4.30;99.90
16271;DHT22;8243;49.048;8.396;2022-12-07T18:02:17;4.40;99.90
16271;DHT22;8243;49.048;8.396;2022-12-07T18:04:43;4.30;99.90
16271;DHT22;8243;49.048;8.396;2022-12-07T18:07:10;4.40;99.90
16271;DHT22;8243;49.048;8.396;2022-12-07T18:09:35;4.30;99.90
16271;DHT22;8243;49.048;8.396;2022-12-07T18:12:01;4.10;99.90
16271;DHT22;8243;49.048;8.396;2022-12-07T18:14:27;4.30;99.90
16271;DHT22;8243;49.048;8.396;2022-12-07T18:16:53;4.00;99.90
16271;DHT22;8243;49.048;8.396;2022-12-07T18:19:18;4.00;99.90